Time;durP1;ratioP1;P1;durP2;ratioP2;P2;SDS_P1;SDS_P2;PMS_P1;PMS_P2;Temp;Humidity;BMP_temperature;BMP_pressure;BME280_temperature;BME280_humidity;BME280_pressure;Samples;Min_cycle;Max_cycle;Signal;HPM_P1;HPM_P2
2021/10/22 00:01:16;;;;;;;14.88;3.80;;;;;;;7.69;74.03;100142.88;4998951;28;20482;-84
2021/10/22 00:03:44;;;;;;;12.38;3.65;;;;;;;7.53;74.18;100142.28;4998625;28;20065;-84
2021/10/22 00:06:11;;;;;;;12.02;3.75;;;;;;;7.82;73.45;100135.72;4999025;28;20058;-84
2021/10/22 00:08:39;;;;;;;12.35;3.28;;;;;;;7.93;72.95;100142.72;4997888;28;20058;-83
2021/10/22 00:11:06;;;;;;;14.05;3.67;;;;;;;7.78;73.60;100137.44;4998082;28;20050;-83
2021/10/22 00:13:33;;;;;;;15.10;3.78;;;;;;;8.00;73.09;100137.59;4999450;28;20051;-83
2021/10/22 00:16:04;;;;;;;15.50;4.38;;;;;;;8.01;73.08;100147.56;4997953;28;20050;-83
2021/10/22 00:18:31;;;;;;;14.25;3.35;;;;;;;8.00;73.04;100137.59;4999519;28;20059;-84
2021/10/22 00:21:01;;;;;;;13.88;3.28;;;;;;;7.99;72.44;100149.81;4997810;28;20050;-84
2021/10/22 00:23:29;;;;;;;13.25;3.15;;;;;;;8.05;72.03;100148.59;4997778;28;20054;-84
2021/10/22 00:25:56;;;;;;;14.80;3.08;;;;;;;8.06;72.07;100150.25;4998567;28;20054;-83
2021/10/22 00:28:24;;;;;;;15.48;3.60;;;;;;;8.19;72.18;100145.00;4986653;28;20046;-83
2021/10/22 00:30:51;;;;;;;16.90;4.45;;;;;;;8.12;71.90;100149.00;4999151;28;20051;-83
2021/10/22 00:33:22;;;;;;;12.98;3.47;;;;;;;8.18;72.11;100154.47;4999314;28;20057;-83
2021/10/22 00:35:53;;;;;;;9.45;2.78;;;;;;;7.96;72.49;100149.59;4998670;28;20058;-83
2021/10/22 00:38:20;;;;;;;11.23;2.95;;;;;;;8.14;72.45;100146.75;4999312;28;20054;-83
2021/10/22 00:40:47;;;;;;;9.85;2.95;;;;;;;8.19;72.19;100140.31;4999024;28;20419;-83
2021/10/22 00:43:15;;;;;;;14.13;3.28;;;;;;;7.96;72.65;100155.13;4999431;28;20062;-83
2021/10/22 00:45:43;;;;;;;10.15;2.72;;;;;;;8.20;72.58;100146.66;4998182;28;20062;-83
2021/10/22 00:48:10;;;;;;;11.00;2.80;;;;;;;8.30;71.86;100146.47;4999431;28;20059;-84
2021/10/22 00:50:41;;;;;;;10.95;3.00;;;;;;;8.19;71.68;100147.78;4999132;28;20054;-83
2021/10/22 00:53:08;;;;;;;11.90;2.83;;;;;;;8.23;72.19;100151.59;4998693;28;20062;-83
2021/10/22 00:55:43;;;;;;;14.63;3.20;;;;;;;8.28;71.50;100143.19;4998546;28;20051;-83
2021/10/22 00:58:11;;;;;;;15.13;3.65;;;;;;;8.20;71.66;100143.91;4995744;28;20050;-82
2021/10/22 01:00:39;;;;;;;11.25;2.80;;;;;;;8.28;71.76;100141.22;4986455;28;20069;-83
2021/10/22 01:03:06;;;;;;;7.55;2.33;;;;;;;8.34;71.73;100147.50;4999337;28;20050;-82
2021/10/22 01:05:36;;;;;;;12.55;2.65;;;;;;;8.41;70.42;100138.81;4999228;28;20058;-83
2021/10/22 01:08:07;;;;;;;13.32;3.08;;;;;;;8.25;71.30;100141.00;4998176;28;20426;-82
2021/10/22 01:10:37;;;;;;;15.68;3.78;;;;;;;8.45;70.61;100140.66;4998683;28;20062;-82
2021/10/22 01:13:05;;;;;;;10.52;2.63;;;;;;;8.44;70.80;100150.13;4998337;28;20152;-82
2021/10/22 01:15:33;;;;;;;16.27;3.80;;;;;;;8.47;71.06;100143.94;4999834;28;20058;-82
2021/10/22 01:18:00;;;;;;;10.45;2.50;;;;;;;8.57;70.88;100140.13;4998477;28;20066;-82
2021/10/22 01:20:28;;;;;;;9.95;3.28;;;;;;;8.62;70.14;100144.75;5000370;28;20066;-82
2021/10/22 01:22:58;;;;;;;14.10;2.80;;;;;;;8.47;71.27;100157.00;4999822;28;20054;-82
2021/10/22 01:25:28;;;;;;;13.85;3.10;;;;;;;8.26;71.31;100156.53;5000000;28;20682;-82
2021/10/22 01:27:56;;;;;;;11.98;3.00;;;;;;;8.34;71.69;100144.72;4997545;28;20058;-82
2021/10/22 01:30:26;;;;;;;8.48;2.70;;;;;;;8.46;71.18;100135.91;4998940;28;20491;-82
2021/10/22 01:32:58;;;;;;;12.18;3.30;;;;;;;8.47;70.50;100149.47;4999644;28;20054;-82
2021/10/22 01:35:26;;;;;;;11.25;3.10;;;;;;;8.62;70.66;100144.75;4997803;28;20058;-82
2021/10/22 01:37:55;;;;;;;10.93;3.67;;;;;;;8.72;70.42;100150.09;4998101;28;20082;-82
2021/10/22 01:40:24;;;;;;;10.82;3.22;;;;;;;8.62;70.26;100142.78;4998949;28;20043;-82
2021/10/22 01:42:52;;;;;;;10.37;2.70;;;;;;;8.65;69.99;100144.97;4997352;28;20054;-82
2021/10/22 01:45:19;;;;;;;12.23;3.72;;;;;;;8.72;70.06;100144.53;4997470;28;20046;-82
2021/10/22 01:47:49;;;;;;;11.50;3.13;;;;;;;8.64;70.29;100148.06;4997506;28;20062;-82
2021/10/22 01:50:17;;;;;;;11.32;2.75;;;;;;;8.68;69.71;100140.75;4998738;28;20062;-82
2021/10/22 01:52:46;;;;;;;12.52;3.10;;;;;;;8.59;70.49;100142.59;4999220;28;20053;-82
2021/10/22 01:55:13;;;;;;;12.32;4.15;;;;;;;8.69;70.33;100143.22;4998948;28;20054;-83
2021/10/22 01:57:42;;;;;;;9.18;2.60;;;;;;;8.87;69.02;100140.63;4998513;28;20050;-82
2021/10/22 02:00:10;;;;;;;11.63;3.28;;;;;;;8.95;68.57;100134.34;4999243;28;20389;-83
2021/10/22 02:02:38;;;;;;;12.15;2.72;;;;;;;8.87;68.60;100143.41;4997237;28;20065;-83
2021/10/22 02:05:06;;;;;;;10.32;2.40;;;;;;;8.63;69.36;100138.06;4998763;28;20054;-83
2021/10/22 02:07:33;;;;;;;8.70;2.20;;;;;;;8.58;68.95;100143.72;4996849;28;20385;-83
2021/10/22 02:10:01;;;;;;;9.48;2.50;;;;;;;8.60;68.91;100147.03;4997946;28;20550;-82
2021/10/22 02:12:28;;;;;;;11.75;2.80;;;;;;;8.41;69.33;100147.13;4998968;28;20046;-83
2021/10/22 02:14:57;;;;;;;10.32;2.55;;;;;;;8.49;68.91;100129.75;4998315;28;20062;-82
2021/10/22 02:17:24;;;;;;;12.10;2.85;;;;;;;8.24;69.74;100134.66;4998372;28;20058;-83
2021/10/22 02:19:51;;;;;;;7.93;2.53;;;;;;;8.26;69.34;100126.03;5001508;28;20054;-82
2021/10/22 02:22:19;;;;;;;13.40;2.72;;;;;;;8.16;70.61;100131.75;4999437;28;20057;-83
2021/10/22 02:24:46;;;;;;;10.95;3.72;;;;;;;8.24;70.20;100133.84;5000281;28;20116;-83
2021/10/22 02:27:13;;;;;;;9.60;2.45;;;;;;;8.23;69.57;100132.16;4999638;28;20061;-83
2021/10/22 02:29:42;;;;;;;11.20;2.33;;;;;;;8.13;69.47;100133.22;5000352;28;20054;-83
2021/10/22 02:32:10;;;;;;;9.50;2.30;;;;;;;8.03;70.60;100130.63;5000389;28;20122;-83
2021/10/22 02:34:38;;;;;;;7.30;2.07;;;;;;;8.13;70.00;100131.25;4998921;28;20057;-83
2021/10/22 02:37:05;;;;;;;7.55;2.08;;;;;;;8.05;70.18;100134.72;4999594;28;20050;-83
2021/10/22 02:39:35;;;;;;;6.38;2.00;;;;;;;8.06;70.26;100130.84;5000071;28;20392;-82
2021/10/22 02:42:03;;;;;;;14.23;2.45;;;;;;;7.90;71.86;100119.19;4999826;28;20057;-83
2021/10/22 02:44:30;;;;;;;8.98;2.47;;;;;;;7.88;71.41;100126.19;4997550;28;20057;-84
2021/10/22 02:46:57;;;;;;;8.30;2.70;;;;;;;8.09;70.31;100123.84;5000347;28;20480;-83
2021/10/22 02:49:27;;;;;;;8.55;2.55;;;;;;;8.00;70.66;100126.50;4999700;28;20058;-83
2021/10/22 02:51:56;;;;;;;;;;;;;;;7.81;71.34;100117.41;5000521;28;20046;-83
2021/10/22 02:54:24;;;;;;;8.95;2.88;;;;;;;7.97;71.40;100126.28;4999479;28;19921;-83
2021/10/22 02:56:51;;;;;;;10.10;3.08;;;;;;;7.93;71.68;100124.13;4998401;28;20053;-83
2021/10/22 02:59:18;;;;;;;8.60;2.42;;;;;;;7.86;71.51;100123.69;4999321;28;20047;-83
2021/10/22 03:01:46;;;;;;;10.60;2.33;;;;;;;7.88;71.30;100124.22;4999716;28;20054;-83
2021/10/22 03:04:13;;;;;;;7.35;2.65;;;;;;;7.77;71.86;100122.78;4999937;28;20053;-83
2021/10/22 03:06:42;;;;;;;8.57;2.55;;;;;;;7.59;71.56;100127.22;5000369;28;20419;-84
2021/10/22 03:09:10;;;;;;;12.77;2.90;;;;;;;7.76;71.36;100123.06;5000217;28;20047;-84
2021/10/22 03:11:37;;;;;;;8.30;2.80;;;;;;;7.78;71.43;100134.66;4999850;28;20066;-84
2021/10/22 03:14:04;;;;;;;7.45;2.20;;;;;;;7.60;71.37;100123.34;5000631;28;20062;-83
2021/10/22 03:16:31;;;;;;;7.47;2.30;;;;;;;7.79;70.68;100122.44;4999784;28;20050;-84
2021/10/22 03:18:59;;;;;;;10.38;3.17;;;;;;;7.72;70.46;100131.97;4999209;28;20058;-84
2021/10/22 03:21:27;;;;;;;12.90;3.22;;;;;;;7.69;70.98;100135.38;5001458;28;20058;-83
2021/10/22 03:23:56;;;;;;;11.73;3.13;;;;;;;7.56;71.52;100127.84;5000619;28;20058;-84
2021/10/22 03:26:24;;;;;;;11.77;2.90;;;;;;;7.77;70.75;100124.69;4999256;28;20057;-84
2021/10/22 03:28:52;;;;;;;14.35;3.05;;;;;;;7.73;70.63;100113.41;4999225;28;20058;-83
2021/10/22 03:31:19;;;;;;;10.23;2.45;;;;;;;7.72;70.13;100112.56;5000066;28;20046;-83
2021/10/22 03:33:46;;;;;;;13.32;2.83;;;;;;;7.72;70.43;100117.28;5000098;28;20050;-84
2021/10/22 03:36:14;;;;;;;10.68;2.70;;;;;;;7.65;70.30;100126.00;4999284;28;20054;-83
2021/10/22 03:38:41;;;;;;;11.60;3.25;;;;;;;7.70;70.57;100120.38;5006192;28;20492;-84
2021/10/22 03:41:10;;;;;;;9.02;2.72;;;;;;;7.79;69.41;100116.91;4999043;28;20050;-84
2021/10/22 03:43:37;;;;;;;11.38;2.63;;;;;;;7.75;69.75;100121.41;4998064;28;20046;-83
2021/10/22 03:46:05;;;;;;;8.60;2.63;;;;;;;7.72;69.48;100107.03;4999475;28;20415;-83
2021/10/22 03:48:33;;;;;;;11.77;2.45;;;;;;;7.71;69.59;100104.56;4999688;28;20054;-83
2021/10/22 03:51:01;;;;;;;10.68;2.85;;;;;;;7.63;69.77;100106.09;4999832;28;20396;-83
2021/10/22 03:53:28;;;;;;;12.48;3.20;;;;;;;7.60;70.05;100095.63;5000301;28;20061;-83
2021/10/22 03:55:56;;;;;;;10.13;2.70;;;;;;;7.68;69.32;100100.44;4998716;28;20054;-83
2021/10/22 03:58:24;;;;;;;8.70;2.22;;;;;;;7.64;68.70;100096.66;4998323;28;20061;-83
2021/10/22 04:00:52;;;;;;;13.30;2.92;;;;;;;7.62;69.95;100100.84;4998378;28;20410;-83
2021/10/22 04:03:19;;;;;;;8.15;2.50;;;;;;;7.53;69.32;100089.63;4998274;28;20062;-83
2021/10/22 04:05:47;;;;;;;9.57;2.65;;;;;;;7.59;68.99;100102.28;4998430;28;20049;-83
2021/10/22 04:08:15;;;;;;;10.90;2.65;;;;;;;7.59;69.26;100102.28;4997345;28;20057;-83
2021/10/22 04:10:43;;;;;;;10.18;3.40;;;;;;;7.66;68.19;100099.91;4999526;28;20169;-83
2021/10/22 04:13:10;;;;;;;10.30;2.70;;;;;;;7.52;68.79;100101.84;4998725;28;20058;-83
2021/10/22 04:15:40;;;;;;;11.65;3.15;;;;;;;7.52;68.53;100110.16;4998169;28;20504;-84
2021/10/22 04:18:08;;;;;;;9.82;2.60;;;;;;;7.54;68.65;100088.53;4997544;28;20360;-84
2021/10/22 04:20:35;;;;;;;12.25;3.05;;;;;;;7.62;67.73;100087.81;4999096;28;20065;-83
2021/10/22 04:23:03;;;;;;;11.20;2.50;;;;;;;7.69;67.87;100098.50;4999306;28;20050;-84
2021/10/22 04:25:30;;;;;;;7.80;2.58;;;;;;;7.63;67.77;100099.72;4997766;28;20051;-83
2021/10/22 04:27:57;;;;;;;8.30;2.60;;;;;;;7.63;67.64;100097.78;4998790;28;20492;-83
2021/10/22 04:30:24;;;;;;;10.07;2.20;;;;;;;7.51;67.35;100086.34;4999363;28;20057;-83
2021/10/22 04:32:53;;;;;;;10.60;2.70;;;;;;;7.51;67.44;100094.66;4999789;28;20046;-84
2021/10/22 04:35:21;;;;;;;9.93;2.38;;;;;;;7.63;66.63;100096.97;5001023;28;20050;-83
2021/10/22 04:38:00;;;;;;;12.32;2.88;;;;;;;7.57;66.30;100098.16;5008500;28;20061;-82
2021/10/22 04:40:31;;;;;;;9.40;2.10;;;;;;;7.46;66.64;100091.97;5002922;28;20427;-83
2021/10/22 04:43:01;;;;;;;9.45;2.65;;;;;;;7.63;66.23;100088.63;5002702;28;20065;-83
2021/10/22 04:45:30;;;;;;;6.90;2.08;;;;;;;7.63;65.90;100092.22;4992277;28;20050;-83
2021/10/22 04:48:00;;;;;;;8.55;2.00;;;;;;;7.52;66.52;100086.03;5002486;28;20050;-82
2021/10/22 04:50:29;;;;;;;10.20;2.70;;;;;;;7.58;66.04;100097.88;5003034;28;20058;-82
2021/10/22 04:52:56;;;;;;;11.32;2.47;;;;;;;7.52;65.78;100083.28;5002918;28;20134;-82
2021/10/22 04:55:25;;;;;;;10.00;2.38;;;;;;;7.57;64.87;100095.41;5003664;28;20058;-83
2021/10/22 04:57:53;;;;;;;10.48;3.83;;;;;;;7.56;65.61;100094.59;5002872;28;20476;-82
2021/10/22 05:00:22;;;;;;;7.22;2.40;;;;;;;7.44;66.14;100097.00;5005623;28;20410;-82
2021/10/22 05:02:49;;;;;;;10.57;2.15;;;;;;;7.35;65.96;100104.34;5002236;28;20065;-83
2021/10/22 05:05:18;;;;;;;6.82;1.85;;;;;;;7.27;66.42;100106.69;5002073;28;20057;-83
2021/10/22 05:07:46;;;;;;;11.55;2.50;;;;;;;7.25;67.02;100108.94;5000775;28;20050;-82
2021/10/22 05:10:13;;;;;;;7.10;2.22;;;;;;;7.38;65.96;100112.06;5001287;28;20065;-82
2021/10/22 05:12:40;;;;;;;11.80;2.35;;;;;;;7.24;66.73;100123.06;4999354;28;20050;-82
2021/10/22 05:15:09;;;;;;;11.82;2.40;;;;;;;7.41;66.77;100117.84;4999500;28;20057;-83
2021/10/22 05:17:37;;;;;;;9.43;2.15;;;;;;;7.47;65.96;100129.63;4998587;28;20057;-83
2021/10/22 05:20:07;;;;;;;9.70;2.58;;;;;;;7.52;66.03;100133.16;4997180;28;20061;-83
2021/10/22 05:22:38;;;;;;;;;;;;;;;7.26;66.92;100138.25;5000208;28;20046;-82
2021/10/22 05:25:06;;;;;;;13.25;3.03;;;;;;;7.45;66.09;100135.47;4998446;28;19921;-82
2021/10/22 05:27:33;;;;;;;9.63;3.00;;;;;;;7.46;66.14;100142.69;4998552;28;20050;-82
2021/10/22 05:30:01;;;;;;;10.45;2.92;;;;;;;7.44;65.59;100141.34;4999623;28;20050;-82
2021/10/22 05:32:28;;;;;;;10.30;3.95;;;;;;;7.50;65.98;100137.38;5001029;28;20053;-83
2021/10/22 05:34:55;;;;;;;9.82;2.38;;;;;;;7.66;65.93;100127.63;4999328;28;20046;-83
2021/10/22 05:37:23;;;;;;;10.75;2.67;;;;;;;7.67;64.80;100137.63;4997759;28;20410;-83
2021/10/22 05:39:51;;;;;;;9.27;2.15;;;;;;;7.87;64.98;100136.47;4997706;28;20046;-83
2021/10/22 05:42:19;;;;;;;11.73;2.43;;;;;;;7.66;64.73;100130.41;4999014;28;20153;-83
2021/10/22 05:44:46;;;;;;;9.63;2.80;;;;;;;7.69;65.06;100143.69;5006312;28;20053;-83
2021/10/22 05:47:15;;;;;;;5.65;2.38;;;;;;;7.82;65.13;100135.72;4998847;28;20054;-83
2021/10/22 05:49:43;;;;;;;8.65;2.50;;;;;;;7.96;64.33;100138.50;4994963;28;20046;-82
2021/10/22 05:52:11;;;;;;;10.65;2.85;;;;;;;8.04;63.80;100127.56;4998504;28;20054;-83
2021/10/22 05:54:39;;;;;;;10.68;2.80;;;;;;;8.10;63.56;100129.06;5000683;28;20418;-82
2021/10/22 05:57:10;;;;;;;9.02;3.53;;;;;;;8.26;63.57;100117.69;4999944;28;20055;-82
2021/10/22 05:59:37;;;;;;;10.10;2.40;;;;;;;8.09;63.34;100126.63;4998457;28;20095;-83
2021/10/22 06:02:05;;;;;;;8.60;2.53;;;;;;;7.98;63.73;100111.28;5000012;28;20051;-83
2021/10/22 06:04:33;;;;;;;8.05;2.58;;;;;;;7.86;64.13;100117.34;4997409;28;20160;-83
2021/10/22 06:07:00;;;;;;;6.90;2.70;;;;;;;7.83;64.23;100110.47;4999964;28;20439;-82
2021/10/22 06:09:27;;;;;;;7.25;2.92;;;;;;;8.20;62.99;100121.69;4998773;28;20073;-82
2021/10/22 06:11:56;;;;;;;11.45;2.72;;;;;;;8.11;63.12;100118.81;4998078;28;20076;-83
2021/10/22 06:14:24;;;;;;;7.70;2.55;;;;;;;8.13;63.27;100109.06;4994724;28;20388;-83
2021/10/22 06:16:52;;;;;;;10.52;2.70;;;;;;;8.01;63.73;100102.38;4995585;28;20054;-82
2021/10/22 06:19:23;;;;;;;7.07;1.80;;;;;;;8.14;63.09;100096.81;4995217;28;20130;-82
2021/10/22 06:21:55;;;;;;;7.75;2.50;;;;;;;7.95;63.65;100085.00;4994264;28;20042;-82
2021/10/22 06:24:23;;;;;;;8.07;3.03;;;;;;;7.88;64.15;100079.03;4993290;28;20495;-82
2021/10/22 06:26:50;;;;;;;10.98;3.00;;;;;;;7.83;63.75;100076.34;4993267;28;20042;-81
2021/10/22 06:29:18;;;;;;;15.93;4.75;;;;;;;7.83;64.25;100068.03;4995271;28;20053;-81
2021/10/22 06:31:48;;;;;;;8.60;2.92;;;;;;;7.84;63.47;100075.22;4995930;28;20061;-81
2021/10/22 06:34:15;;;;;;;18.83;7.00;;;;;;;8.00;64.21;100078.53;4998046;28;20070;-82
2021/10/22 06:36:43;;;;;;;14.75;4.95;;;;;;;7.80;64.35;100096.38;4997102;28;20058;-82
2021/10/22 06:39:10;;;;;;;11.07;3.97;;;;;;;7.98;63.99;100076.06;4997245;28;20138;-84
2021/10/22 06:41:38;;;;;;;13.35;4.60;;;;;;;8.28;63.13;100077.41;4998748;28;21679;-83
2021/10/22 06:44:05;;;;;;;12.40;3.38;;;;;;;8.71;62.08;100073.47;4996177;28;20081;-82
2021/10/22 06:46:33;;;;;;;24.70;9.48;;;;;;;9.22;60.22;100097.31;4993864;28;20062;-81
2021/10/22 06:49:02;;;;;;;17.70;7.93;;;;;;;9.83;57.92;100078.25;4996354;28;20051;-83
2021/10/22 06:51:31;;;;;;;13.13;4.80;;;;;;;10.41;56.83;100056.88;4993326;28;20057;-82
2021/10/22 06:53:58;;;;;;;12.38;4.75;;;;;;;10.46;56.25;100061.50;4991323;28;20058;-82
2021/10/22 06:56:27;;;;;;;8.07;2.83;;;;;;;11.06;54.19;100073.88;4993350;28;20061;-82
2021/10/22 06:58:55;;;;;;;6.88;2.63;;;;;;;11.47;52.56;100066.97;4992282;28;20527;-82
2021/10/22 07:01:22;;;;;;;11.10;2.70;;;;;;;11.92;52.04;100077.72;4995461;28;20057;-82
2021/10/22 07:03:52;;;;;;;7.68;2.67;;;;;;;13.04;49.75;100064.28;4988457;28;20058;-81
2021/10/22 07:09:12;;;;;;;8.23;2.45;;;;;;;13.35;47.65;100063.06;4997605;28;20073;-85
2021/10/22 07:11:39;;;;;;;7.68;2.80;;;;;;;14.01;46.17;100077.00;4995610;28;20423;-84
2021/10/22 07:14:08;;;;;;;8.82;3.22;;;;;;;13.38;48.15;100076.38;4993348;28;20054;-86
2021/10/22 07:16:38;;;;;;;8.03;2.47;;;;;;;13.72;46.27;100069.59;4993454;28;20058;-86
2021/10/22 07:19:06;;;;;;;7.90;2.85;;;;;;;12.12;50.53;100098.50;5003325;28;20463;-85
2021/10/22 07:21:39;;;;;;;8.73;2.75;;;;;;;12.88;49.25;100086.44;5014236;28;20064;-85
2021/10/22 07:24:13;;;;;;;7.63;2.60;;;;;;;12.05;49.83;100089.81;4997300;28;20057;-84
2021/10/22 07:26:40;;;;;;;10.23;3.25;;;;;;;11.59;51.60;100097.78;4995382;28;20051;-83
2021/10/22 07:29:08;;;;;;;8.35;3.08;;;;;;;10.90;53.74;100093.88;4994281;28;20069;-84
2021/10/22 07:31:36;;;;;;;9.45;2.88;;;;;;;10.39;55.48;100100.13;4998681;28;20057;-83
2021/10/22 07:34:03;;;;;;;7.22;2.10;;;;;;;10.80;54.05;100101.72;5002604;28;20058;-84
2021/10/22 07:36:30;;;;;;;11.20;2.83;;;;;;;10.67;54.77;100112.66;4998126;28;20055;-82
2021/10/22 07:38:59;;;;;;;9.52;2.53;;;;;;;10.60;55.10;100111.50;4997698;28;20050;-83
2021/10/22 07:41:26;;;;;;;19.20;3.83;;;;;;;10.22;56.10;100114.75;5001202;28;20116;-84
2021/10/22 07:43:54;;;;;;;9.50;2.95;;;;;;;10.09;56.90;100114.53;4999528;28;20348;-87
2021/10/22 07:46:21;;;;;;;5.47;2.15;;;;;;;10.06;57.39;100112.41;4996405;28;20062;-84
2021/10/22 07:48:49;;;;;;;8.52;2.85;;;;;;;10.42;56.37;100108.66;5006561;28;20487;-84
2021/10/22 07:51:16;;;;;;;8.60;2.90;;;;;;;10.45;56.57;100127.50;5010830;28;20049;-83
2021/10/22 07:53:43;;;;;;;13.82;3.38;;;;;;;10.26;57.06;100124.13;5001241;28;20050;-82
2021/10/22 07:56:12;;;;;;;8.20;3.00;;;;;;;10.60;56.14;100117.06;4994620;28;20054;-83
2021/10/22 07:58:41;;;;;;;9.38;2.65;;;;;;;10.22;56.74;100126.72;5009565;28;20061;-83
2021/10/22 08:01:09;;;;;;;9.87;2.57;;;;;;;10.01;57.83;100118.09;5009690;28;20061;-86
2021/10/22 08:03:36;;;;;;;6.80;2.90;;;;;;;9.93;58.06;100111.38;4997307;28;20513;-86
2021/10/22 08:06:05;;;;;;;9.27;2.90;;;;;;;9.56;59.76;100120.94;4996273;28;20700;-86
2021/10/22 08:08:32;;;;;;;8.07;2.47;;;;;;;9.98;58.96;100126.28;5006219;28;20054;-84
2021/10/22 08:10:59;;;;;;;5.50;2.47;;;;;;;10.76;56.79;100126.59;4989420;28;20062;-84
2021/10/22 08:13:28;;;;;;;6.88;2.22;;;;;;;11.06;55.32;100113.69;4993523;28;20061;-81
2021/10/22 08:15:57;;;;;;;7.70;3.78;;;;;;;11.16;55.52;100120.94;4997821;28;20073;-86
2021/10/22 08:18:26;;;;;;;8.15;2.35;;;;;;;10.80;55.52;100127.59;5003965;28;20061;-86
2021/10/22 08:20:59;;;;;;;9.00;2.38;;;;;;;11.01;56.13;100132.56;5006834;28;20124;-86
2021/10/22 08:23:27;;;;;;;9.98;2.88;;;;;;;10.97;55.84;100130.41;5009815;28;20057;-84
2021/10/22 08:25:55;;;;;;;12.20;2.95;;;;;;;10.69;56.86;100134.63;5000536;28;20059;-85
2021/10/22 08:28:23;;;;;;;7.35;2.17;;;;;;;10.32;58.05;100126.47;5011066;28;20080;-85
2021/10/22 08:31:00;;;;;;;7.20;2.40;;;;;;;10.48;59.32;100134.41;5013833;28;20422;-85
2021/10/22 08:33:28;;;;;;;13.88;3.20;;;;;;;10.71;58.49;100135.94;5007079;28;20372;-85
2021/10/22 08:35:55;;;;;;;11.43;3.30;;;;;;;10.55;58.28;100143.09;5000113;28;20062;-83
2021/10/22 08:38:22;;;;;;;9.77;3.78;;;;;;;11.14;57.45;100149.13;5003721;28;20514;-85
2021/10/22 08:40:50;;;;;;;9.65;2.83;;;;;;;12.02;54.97;100138.75;5004736;28;20061;-84
2021/10/22 08:43:18;;;;;;;8.20;2.50;;;;;;;11.62;55.22;100132.56;5006031;28;20050;-84
2021/10/22 08:45:46;;;;;;;10.00;2.47;;;;;;;11.34;56.01;100153.25;4995442;28;20050;-84
2021/10/22 08:48:15;;;;;;;7.25;2.30;;;;;;;11.53;55.54;100138.16;5002016;28;20050;-84
2021/10/22 08:50:43;;;;;;;11.00;3.17;;;;;;;11.47;56.15;100139.47;5007063;28;20046;-85
2021/10/22 08:53:10;;;;;;;6.75;2.25;;;;;;;11.07;57.08;100142.41;4999204;28;20054;-85
2021/10/22 08:55:38;;;;;;;12.20;2.55;;;;;;;11.08;57.55;100144.84;5015306;28;20789;-81
2021/10/22 08:58:05;;;;;;;8.38;2.55;;;;;;;10.82;57.96;100155.97;5004319;28;20065;-83
2021/10/22 09:00:33;;;;;;;9.05;2.35;;;;;;;11.01;57.73;100146.50;5005859;28;20045;-82
2021/10/22 09:03:12;;;;;;;10.98;3.10;;;;;;;11.08;57.36;100149.63;4999137;28;20057;-85
2021/10/22 09:05:57;;;;;;;9.02;2.78;;;;;;;10.85;58.03;100141.38;5012906;28;20423;-85
2021/10/22 09:08:32;;;;;;;10.55;3.15;;;;;;;10.98;57.99;100145.16;5006318;28;20050;-82
2021/10/22 09:11:00;;;;;;;6.93;2.58;;;;;;;11.20;57.56;100144.22;4995092;28;20042;-86
2021/10/22 09:13:29;;;;;;;7.13;2.17;;;;;;;11.00;58.44;100139.28;5017937;28;20045;-85
2021/10/22 09:15:58;;;;;;;11.55;2.83;;;;;;;10.89;57.98;100155.47;5003652;28;20136;-84
2021/10/22 09:18:29;;;;;;;10.60;2.75;;;;;;;11.01;58.04;100143.72;5003120;28;20400;-84
2021/10/22 09:21:00;;;;;;;7.43;2.53;;;;;;;10.69;58.50;100143.00;5000529;28;20093;-84
2021/10/22 09:23:30;;;;;;;4.93;2.17;;;;;;;11.02;58.26;100151.72;5008000;28;20050;-84
2021/10/22 09:26:15;;;;;;;7.18;2.33;;;;;;;11.11;57.79;100143.41;4984081;28;20061;-84
2021/10/22 09:28:45;;;;;;;8.25;2.03;;;;;;;11.09;57.42;100145.69;5014813;28;20061;-84
2021/10/22 09:31:12;;;;;;;;;;;;;;;11.12;57.35;100150.59;5012872;28;20050;-85
2021/10/22 09:33:51;;;;;;;5.55;2.05;;;;;;;10.75;58.24;100159.22;4996810;28;20370;-84
2021/10/22 09:36:33;;;;;;;6.93;2.05;;;;;;;11.04;59.00;100152.22;4988160;28;20046;-84
2021/10/22 09:39:08;;;;;;;10.00;2.42;;;;;;;10.98;59.31;100142.38;4996669;28;20058;-85
2021/10/22 09:41:37;;;;;;;8.20;2.33;;;;;;;11.32;58.53;100149.97;5002269;28;20419;-84
2021/10/22 09:44:21;;;;;;;6.65;2.45;;;;;;;11.43;57.83;100149.66;4999424;28;20054;-84
2021/10/22 09:46:49;;;;;;;8.15;2.65;;;;;;;11.52;57.42;100156.03;5016519;28;20058;-83
2021/10/22 09:49:27;;;;;;;6.57;2.15;;;;;;;11.52;57.18;100130.94;5010262;28;20053;-84
2021/10/22 09:51:56;;;;;;;6.45;1.98;;;;;;;11.54;56.92;100145.38;5014850;28;20054;-85
2021/10/22 09:54:29;;;;;;;8.73;2.20;;;;;;;11.61;56.82;100151.25;5001819;28;20065;-85
2021/10/22 09:56:58;;;;;;;6.22;2.25;;;;;;;11.42;57.18;100148.00;4998767;28;20050;-85
2021/10/22 09:59:27;;;;;;;9.07;1.95;;;;;;;11.74;56.59;100150.28;5008244;28;20376;-84
2021/10/22 10:01:56;;;;;;;7.65;2.35;;;;;;;11.54;56.82;100145.38;5009250;28;20054;-85
2021/10/22 10:04:25;;;;;;;8.88;2.13;;;;;;;11.49;57.21;100134.41;4984414;28;20062;-84
2021/10/22 10:06:53;;;;;;;9.25;2.53;;;;;;;12.05;56.07;100152.03;4997777;28;20050;-80
2021/10/22 10:09:23;;;;;;;7.93;2.20;;;;;;;13.91;51.43;100138.25;5004607;28;20426;-78
2021/10/22 10:11:53;;;;;;;7.78;2.38;;;;;;;15.98;45.89;100140.41;4996058;28;20057;-79
2021/10/22 10:14:25;;;;;;;9.80;2.65;;;;;;;17.06;43.09;100113.03;5009311;28;20050;-79
2021/10/22 10:16:54;;;;;;;10.68;2.95;;;;;;;17.81;40.85;100148.44;5003259;28;20415;-79
2021/10/22 10:19:24;;;;;;;7.40;2.17;;;;;;;16.30;43.47;100148.91;5008800;28;20057;-79
2021/10/22 10:21:55;;;;;;;5.38;1.95;;;;;;;18.01;40.44;100126.69;5017592;28;20054;-80
2021/10/22 10:24:31;;;;;;;6.38;1.80;;;;;;;17.11;41.51;100148.50;4977789;28;20077;-80
2021/10/22 10:27:05;;;;;;;7.78;2.30;;;;;;;16.23;43.38;100133.50;4984240;28;20054;-79
2021/10/22 10:29:34;;;;;;;5.75;2.00;;;;;;;16.81;42.90;100137.75;4997173;28;20054;-80
2021/10/22 10:32:04;;;;;;;5.88;2.00;;;;;;;17.51;41.25;100136.13;4986443;28;20427;-80
2021/10/22 10:34:43;;;;;;;12.80;4.43;;;;;;;16.69;42.88;100132.22;5002020;28;20050;-80
2021/10/22 10:37:36;;;;;;;8.90;2.35;;;;;;;17.54;41.40;100122.13;4997498;28;20054;-80
2021/10/22 10:40:12;;;;;;;5.57;2.95;;;;;;;18.99;37.74;100106.63;4983723;28;20065;-79
2021/10/22 10:42:43;;;;;;;9.57;2.08;;;;;;;19.19;37.66;100124.22;4995794;28;20407;-79
2021/10/22 10:45:18;;;;;;;7.47;2.47;;;;;;;19.93;36.38;100128.41;4996499;28;20054;-80
2021/10/22 10:47:50;;;;;;;5.22;1.30;;;;;;;18.90;37.29;100123.00;4995550;28;20515;-79
2021/10/22 10:50:21;;;;;;;6.43;1.83;;;;;;;20.06;35.95;100133.44;4995727;28;20065;-79
2021/10/22 10:52:53;;;;;;;6.88;1.98;;;;;;;20.46;35.26;100145.94;4996808;28;20062;-79
2021/10/22 10:55:27;;;;;;;5.45;2.00;;;;;;;20.42;34.55;100135.81;5009067;28;20054;-77
2021/10/22 10:57:57;;;;;;;6.68;1.85;;;;;;;20.24;34.95;100127.97;4998571;28;20054;-77
2021/10/22 11:00:28;;;;;;;6.95;2.20;;;;;;;20.07;35.52;100154.03;4992099;28;20054;-77
2021/10/22 11:03:15;;;;;;;4.55;1.83;;;;;;;20.23;35.06;100148.97;4989837;28;20058;-77
2021/10/22 11:06:05;;;;;;;7.90;1.85;;;;;;;19.03;36.96;100150.63;4990004;28;20065;-77
2021/10/22 11:08:46;;;;;;;7.40;2.08;;;;;;;18.07;39.10;100144.13;4993684;28;20061;-77
2021/10/22 11:11:36;;;;;;;4.82;2.10;;;;;;;17.91;39.35;100140.56;5000965;28;20053;-84
2021/10/22 11:14:23;;;;;;;4.85;2.03;;;;;;;17.12;40.26;100165.03;5011715;28;20054;-83
2021/10/22 11:16:53;;;;;;;7.30;2.42;;;;;;;17.08;40.91;100147.25;5018934;28;20054;-83
2021/10/22 11:19:25;;;;;;;7.50;2.88;;;;;;;16.15;43.41;100159.75;5007023;28;20050;-84
2021/10/22 11:21:54;;;;;;;8.18;2.42;;;;;;;16.20;43.46;100150.25;5000461;28;20057;-83
2021/10/22 11:24:24;;;;;;;6.47;2.47;;;;;;;15.58;44.92;100144.06;4993937;28;20062;-83
2021/10/22 11:26:59;;;;;;;7.13;2.45;;;;;;;15.52;45.06;100153.94;4999008;28;20061;-84
2021/10/22 11:29:28;;;;;;;7.50;2.42;;;;;;;14.95;46.26;100167.84;5011482;28;20061;-83
2021/10/22 11:31:58;;;;;;;7.78;1.65;;;;;;;14.47;46.96;100160.16;4999767;28;20065;-83
2021/10/22 11:34:27;;;;;;;5.95;1.77;;;;;;;14.28;47.40;100147.56;4999275;28;20061;-83
2021/10/22 11:37:00;;;;;;;5.97;1.55;;;;;;;14.04;48.37;100159.50;5006339;28;20054;-78
2021/10/22 11:39:30;;;;;;;9.27;2.05;;;;;;;14.01;48.55;100151.81;5003214;28;20598;-80